createdAt,value
2023-03-15T00:00:58.699Z,3.50
2023-03-15T00:05:23.078Z,3.38
2023-03-15T00:09:45.358Z,3.22
2023-03-15T00:14:07.358Z,3.40
2023-03-15T00:18:29.666Z,2.70
2023-03-15T00:22:51.838Z,2.63
2023-03-15T00:27:13.799Z,3.17
2023-03-15T00:31:36.262Z,2.60
2023-03-15T00:35:58.408Z,3.47
2023-03-15T00:40:20.838Z,3.03
2023-03-15T00:44:44.160Z,2.90
2023-03-15T00:49:05.979Z,3.50
2023-03-15T00:53:27.912Z,3.15
2023-03-15T00:57:50.058Z,2.88
2023-03-15T01:02:12.877Z,3.70
2023-03-15T01:06:34.619Z,3.75
2023-03-15T01:10:56.887Z,3.30
2023-03-15T01:15:18.958Z,2.33
2023-03-15T01:19:40.937Z,3.33
2023-03-15T01:24:03.377Z,2.97
2023-03-15T01:28:25.617Z,2.47
2023-03-15T01:32:47.971Z,2.97
2023-03-15T01:37:14.709Z,3.40
2023-03-15T01:41:39.742Z,3.40
2023-03-15T01:46:17.798Z,2.55
2023-03-15T01:50:40.878Z,3.35
2023-03-15T01:55:15.230Z,2.55
2023-03-15T01:59:57.037Z,2.60
2023-03-15T02:04:38.350Z,2.42
2023-03-15T02:09:08.537Z,3.40
2023-03-15T02:13:35.338Z,2.53
2023-03-15T02:18:01.700Z,2.58
2023-03-15T02:22:47.581Z,2.55
2023-03-15T02:27:10.382Z,2.53
2023-03-15T02:31:38.360Z,2.67
2023-03-15T02:36:20.900Z,3.35
2023-03-15T02:40:43.841Z,3.22
2023-03-15T02:45:06.719Z,2.95
2023-03-15T02:49:33.104Z,2.03
2023-03-15T02:53:55.328Z,2.20
2023-03-15T02:58:17.386Z,2.72
2023-03-15T03:02:44.679Z,2.85
2023-03-15T03:07:06.678Z,2.55
2023-03-15T03:11:37.826Z,2.80
2023-03-15T03:16:00.156Z,3.03
2023-03-15T03:20:25.841Z,3.10
2023-03-15T03:24:48.799Z,4.05
2023-03-15T03:29:11.741Z,3.95
2023-03-15T03:33:33.604Z,3.28
2023-03-15T03:37:55.795Z,3.25
2023-03-15T03:42:23.777Z,3.20
2023-03-15T03:46:46.109Z,3.00
2023-03-15T03:51:09.573Z,3.83
2023-03-15T03:55:34.182Z,3.10
2023-03-15T03:59:58.814Z,3.00
2023-03-15T04:04:21.878Z,2.78
2023-03-15T04:08:44.364Z,2.95
2023-03-15T04:13:10.856Z,3.00
2023-03-15T04:17:33.654Z,3.35
2023-03-15T04:21:55.414Z,2.80
2023-03-15T04:26:42.211Z,3.08
2023-03-15T04:31:27.344Z,3.47
2023-03-15T04:36:03.017Z,4.15
2023-03-15T04:40:55.226Z,2.88
2023-03-15T04:45:35.500Z,2.92
2023-03-15T04:50:36.283Z,3.00
2023-03-15T04:55:17.066Z,3.15
2023-03-15T04:59:53.283Z,3.70
2023-03-15T05:04:34.065Z,3.00
2023-03-15T05:09:19.395Z,3.25
2023-03-15T05:14:00.442Z,3.58
2023-03-15T05:18:41.944Z,3.63
2023-03-15T05:23:17.223Z,2.65
2023-03-15T05:27:58.655Z,3.05
2023-03-15T05:32:45.137Z,2.95
2023-03-15T05:37:07.363Z,3.25
2023-03-15T05:41:47.104Z,2.72
2023-03-15T05:46:28.405Z,2.45
2023-03-15T05:51:04.581Z,2.78
2023-03-15T05:55:52.805Z,2.40
2023-03-15T06:00:33.344Z,2.78
2023-03-15T06:05:01.651Z,2.38
2023-03-15T06:09:23.538Z,2.60
2023-03-15T06:13:46.506Z,3.25
2023-03-15T06:18:20.497Z,3.28
2023-03-15T06:22:44.740Z,2.60
2023-03-15T06:27:22.288Z,2.65
2023-03-15T06:31:48.279Z,2.63
2023-03-15T06:36:11.631Z,2.63
2023-03-15T06:40:35.181Z,2.55
2023-03-15T06:44:57.414Z,2.40
2023-03-15T06:49:19.456Z,2.88
2023-03-15T06:53:41.687Z,2.97
2023-03-15T06:58:04.038Z,2.88
2023-03-15T07:02:26.115Z,3.38
2023-03-15T07:06:48.281Z,3.35
2023-03-15T07:11:10.193Z,3.13
2023-03-15T07:15:32.263Z,2.88
2023-03-15T07:19:56.826Z,2.78
2023-03-15T07:24:19.044Z,2.65
2023-03-15T07:28:41.245Z,2.95
2023-03-15T07:33:03.126Z,2.75
2023-03-15T07:37:24.986Z,3.20
2023-03-15T07:41:47.241Z,3.20
2023-03-15T07:46:16.197Z,2.35
2023-03-15T07:50:38.279Z,2.65
2023-03-15T07:55:00.155Z,2.40
2023-03-15T07:59:22.071Z,2.78
2023-03-15T08:03:44.257Z,2.85
2023-03-15T08:08:07.096Z,2.40
2023-03-15T08:12:30.258Z,2.20
2023-03-15T08:16:52.622Z,2.38
2023-03-15T08:21:14.919Z,2.97
2023-03-15T08:25:41.075Z,2.50
2023-03-15T08:30:04.280Z,2.88
2023-03-15T08:34:26.721Z,2.20
2023-03-15T08:38:49.108Z,3.08
2023-03-15T08:43:11.441Z,3.03
2023-03-15T08:47:37.920Z,2.83
2023-03-15T08:52:00.124Z,2.65
2023-03-15T08:56:22.518Z,3.65
2023-03-15T09:00:44.356Z,2.97
2023-03-15T09:05:07.414Z,3.95
2023-03-15T09:09:29.714Z,3.08
2023-03-15T09:13:51.799Z,3.83
2023-03-15T09:18:13.910Z,3.10
2023-03-15T09:22:39.287Z,2.75
2023-03-15T09:27:02.239Z,3.35
2023-03-15T09:31:25.156Z,3.00
2023-03-15T09:35:47.157Z,3.22
2023-03-15T09:40:29.591Z,3.40
2023-03-15T09:45:27.070Z,3.05
2023-03-15T09:50:06.090Z,3.28
2023-03-15T09:54:51.865Z,2.83
2023-03-15T09:59:17.825Z,3.60
2023-03-15T10:03:51.707Z,3.28
2023-03-15T10:08:17.947Z,3.22
2023-03-15T10:12:44.506Z,3.30
2023-03-15T10:17:13.952Z,3.50
2023-03-15T10:21:52.708Z,3.42
2023-03-15T10:26:21.286Z,2.65
2023-03-15T10:30:49.409Z,2.75
2023-03-15T10:35:19.803Z,2.45
2023-03-15T10:39:48.202Z,2.60
2023-03-15T10:44:17.440Z,2.67
2023-03-15T10:49:14.980Z,3.30
2023-03-15T10:53:38.123Z,2.53
2023-03-15T10:58:19.738Z,3.22
2023-03-15T11:03:01.577Z,3.17
2023-03-15T11:07:23.780Z,2.30
2023-03-15T11:11:59.112Z,8.15
2023-03-15T11:16:22.519Z,2.60
2023-03-15T11:20:45.663Z,2.95
2023-03-15T11:25:18.599Z,2.30
2023-03-15T11:29:52.807Z,3.10
2023-03-15T11:34:33.584Z,2.88
2023-03-15T11:38:56.059Z,2.60
2023-03-15T11:43:38.572Z,2.67
2023-03-15T11:48:13.261Z,2.70
2023-03-15T11:52:35.293Z,2.30
2023-03-15T11:57:28.123Z,2.08
2023-03-15T12:02:10.328Z,2.00
2023-03-15T12:06:38.264Z,2.33
2023-03-15T12:11:00.776Z,2.25
2023-03-15T12:15:28.412Z,1.90
2023-03-15T12:20:12.176Z,2.10
2023-03-15T12:24:39.221Z,2.40
2023-03-15T12:29:01.294Z,1.92
2023-03-15T12:33:24.324Z,2.10
2023-03-15T12:37:49.379Z,1.88
2023-03-15T12:42:31.221Z,2.00
2023-03-15T12:46:54.711Z,2.10
2023-03-15T12:51:53.644Z,2.00
2023-03-15T12:56:42.632Z,2.25
2023-03-15T13:01:08.008Z,2.58
2023-03-15T13:06:13.389Z,2.40
2023-03-15T13:11:20.796Z,2.97
2023-03-15T13:16:45.132Z,3.63
2023-03-15T13:21:28.857Z,2.92
2023-03-15T13:26:30.699Z,2.90
2023-03-15T13:30:55.816Z,3.38
2023-03-15T13:35:18.356Z,3.15
2023-03-15T13:39:52.737Z,2.90
2023-03-15T13:44:21.579Z,2.72
2023-03-15T13:48:46.519Z,2.90
2023-03-15T13:53:14.372Z,3.00
2023-03-15T13:57:37.460Z,2.92
2023-03-15T14:02:02.804Z,2.85
2023-03-15T14:06:26.958Z,2.65
2023-03-15T14:11:20.065Z,3.30
2023-03-15T14:15:47.422Z,3.35
2023-03-15T14:20:16.248Z,3.67
2023-03-15T14:24:44.722Z,3.50
2023-03-15T14:29:18.191Z,3.75
2023-03-15T14:33:42.320Z,3.55
2023-03-15T14:38:20.006Z,3.80
2023-03-15T14:42:43.317Z,3.50
2023-03-15T14:47:16.822Z,3.30
2023-03-15T14:51:38.813Z,3.67
2023-03-15T14:56:00.963Z,3.80
2023-03-15T15:00:23.060Z,3.25
2023-03-15T15:04:48.402Z,3.70
2023-03-15T15:09:11.068Z,4.05
2023-03-15T15:13:33.263Z,4.15
2023-03-15T15:17:55.383Z,4.05
2023-03-15T15:22:23.773Z,3.83
2023-03-15T15:26:47.111Z,3.63
2023-03-15T15:31:16.542Z,3.22
2023-03-15T15:35:39.164Z,3.08
2023-03-15T15:40:01.240Z,3.05
2023-03-15T15:44:25.775Z,3.15
2023-03-15T15:48:49.322Z,4.75
2023-03-15T15:53:17.092Z,3.30
2023-03-15T15:57:39.458Z,1.88
2023-03-15T16:02:02.537Z,2.38
2023-03-15T16:06:25.150Z,1.85
2023-03-15T16:10:47.113Z,2.28
2023-03-15T16:15:14.598Z,2.67
2023-03-15T16:19:36.583Z,2.15
2023-03-15T16:24:19.558Z,1.90
2023-03-15T16:28:41.995Z,2.65
2023-03-15T16:33:14.420Z,3.30
2023-03-15T16:37:36.909Z,3.90
2023-03-15T16:41:59.080Z,3.85
2023-03-15T16:46:21.548Z,17.35
2023-03-15T16:50:44.497Z,4.88
2023-03-15T16:55:07.018Z,4.38
2023-03-15T16:59:30.096Z,3.75
2023-03-15T17:03:52.990Z,4.57
2023-03-15T17:08:19.990Z,5.28
2023-03-15T17:12:42.545Z,4.78
2023-03-15T17:17:04.512Z,5.15
2023-03-15T17:21:28.079Z,5.78
2023-03-15T17:25:50.302Z,8.63
2023-03-15T17:30:15.693Z,10.00
2023-03-15T17:34:37.987Z,9.00
2023-03-15T17:38:59.903Z,9.80
2023-03-15T17:43:22.038Z,7.05
2023-03-15T17:47:44.077Z,11.32
2023-03-15T17:52:15.687Z,6.75
2023-03-15T17:56:37.900Z,8.88
2023-03-15T18:01:01.313Z,8.45
2023-03-15T18:05:26.182Z,9.13
2023-03-15T18:09:48.967Z,8.50
2023-03-15T18:14:16.171Z,9.07
2023-03-15T18:18:38.300Z,9.05
2023-03-15T18:23:00.238Z,9.48
2023-03-15T18:27:22.381Z,9.48
2023-03-15T18:31:44.558Z,9.27
2023-03-15T18:36:07.002Z,10.57
2023-03-15T18:40:32.055Z,8.90
2023-03-15T18:44:54.067Z,9.63
2023-03-15T18:49:16.297Z,10.40
2023-03-15T18:53:38.916Z,9.73
2023-03-15T18:58:01.646Z,11.10
2023-03-15T19:02:24.101Z,11.07
2023-03-15T19:06:45.895Z,11.40
2023-03-15T19:11:10.742Z,11.23
2023-03-15T19:15:32.771Z,10.90
2023-03-15T19:19:55.109Z,10.80
2023-03-15T19:24:16.936Z,10.52
2023-03-15T19:28:38.802Z,8.77
2023-03-15T19:33:01.643Z,8.65
2023-03-15T19:37:24.370Z,10.27
2023-03-15T19:41:47.314Z,8.68
2023-03-15T19:46:10.452Z,9.20
2023-03-15T19:50:34.069Z,8.40
2023-03-15T19:54:56.617Z,8.05
2023-03-15T19:59:18.544Z,6.28
2023-03-15T20:03:40.969Z,6.97
2023-03-15T20:08:02.876Z,6.53
2023-03-15T20:12:24.796Z,7.45
2023-03-15T20:16:47.440Z,6.97
2023-03-15T20:21:09.771Z,6.63
2023-03-15T20:25:31.907Z,7.68
2023-03-15T20:29:56.675Z,7.78
2023-03-15T20:34:19.122Z,9.60
2023-03-15T20:38:42.204Z,8.77
2023-03-15T20:43:05.523Z,8.45
2023-03-15T20:47:27.762Z,7.63
2023-03-15T20:51:51.270Z,9.50
2023-03-15T20:56:13.399Z,9.15
2023-03-15T21:00:36.318Z,9.98
2023-03-15T21:04:58.058Z,9.57
2023-03-15T21:09:20.158Z,9.20
2023-03-15T21:13:42.457Z,9.77
2023-03-15T21:18:05.007Z,9.93
2023-03-15T21:22:26.921Z,9.27
2023-03-15T21:26:54.180Z,9.98
2023-03-15T21:31:16.724Z,10.50
2023-03-15T21:35:38.958Z,10.55
2023-03-15T21:40:00.994Z,10.85
2023-03-15T21:44:22.924Z,9.70
2023-03-15T21:48:45.022Z,14.40
2023-03-15T21:53:06.742Z,13.63
2023-03-15T21:57:28.941Z,14.90
2023-03-15T22:01:51.113Z,11.00
2023-03-15T22:06:13.225Z,10.70
2023-03-15T22:10:35.796Z,10.70
2023-03-15T22:15:05.216Z,11.50
2023-03-15T22:19:27.764Z,12.30
2023-03-15T22:23:49.606Z,10.93
2023-03-15T22:28:11.851Z,10.95
2023-03-15T22:32:33.902Z,10.80
2023-03-15T22:36:55.871Z,12.30
2023-03-15T22:41:19.758Z,11.32
2023-03-15T22:45:41.473Z,11.82
2023-03-15T22:50:03.856Z,12.70
2023-03-15T22:54:25.916Z,12.05
2023-03-15T22:58:47.814Z,11.55
2023-03-15T23:03:09.508Z,11.75
2023-03-15T23:07:31.698Z,11.15
2023-03-15T23:11:53.918Z,11.52
2023-03-15T23:16:17.736Z,12.02
2023-03-15T23:20:41.624Z,14.23
2023-03-15T23:25:03.457Z,13.00
2023-03-15T23:29:25.240Z,13.70
2023-03-15T23:33:47.916Z,12.60
2023-03-15T23:38:10.080Z,12.52
2023-03-15T23:42:32.801Z,13.00
2023-03-15T23:46:55.425Z,12.48
2023-03-15T23:51:17.189Z,12.43
2023-03-15T23:55:39.384Z,11.68
